createdAt,value
2018-10-19T00:01:31.611Z,36.13
2018-10-19T00:04:20.927Z,34.50
2018-10-19T00:07:09.031Z,34.50
2018-10-19T00:09:57.432Z,34.83
2018-10-19T00:12:45.895Z,32.33
2018-10-19T00:15:35.743Z,33.60
2018-10-19T00:18:24.918Z,32.20
2018-10-19T00:21:13.437Z,32.87
2018-10-19T00:24:03.856Z,32.63
2018-10-19T00:26:52.428Z,33.17
2018-10-19T00:29:41.229Z,33.48
2018-10-19T00:32:30.144Z,32.57
2018-10-19T00:35:18.907Z,32.07
2018-10-19T00:38:07.450Z,31.93
2018-10-19T00:40:55.502Z,33.83
2018-10-19T00:43:43.605Z,34.23
2018-10-19T00:46:32.159Z,33.83
2018-10-19T00:49:20.021Z,33.27
2018-10-19T00:52:07.757Z,31.53
2018-10-19T00:54:55.658Z,34.17
2018-10-19T00:57:43.103Z,33.03
2018-10-19T01:00:31.665Z,33.07
2018-10-19T01:03:19.904Z,34.15
2018-10-19T01:06:08.156Z,34.03
2018-10-19T01:08:57.048Z,35.27
2018-10-19T01:11:45.873Z,36.23
2018-10-19T01:14:34.335Z,33.90
2018-10-19T01:17:22.368Z,33.67
2018-10-19T01:20:10.603Z,35.53
2018-10-19T01:22:58.776Z,31.93
2018-10-19T01:25:47.193Z,31.67
2018-10-19T01:28:35.337Z,32.93
2018-10-19T01:31:24.575Z,33.60
2018-10-19T01:34:12.860Z,33.17
2018-10-19T01:37:00.770Z,34.87
2018-10-19T01:39:48.638Z,32.60
2018-10-19T01:42:40.534Z,34.60
2018-10-19T01:45:32.857Z,31.10
2018-10-19T01:48:22.373Z,33.00
2018-10-19T01:51:12.212Z,32.40
2018-10-19T01:54:03.407Z,32.08
2018-10-19T01:56:55.174Z,32.13
2018-10-19T01:59:45.804Z,32.10
2018-10-19T02:02:36.212Z,32.07
2018-10-19T02:05:26.502Z,31.93
2018-10-19T02:08:16.829Z,32.47
2018-10-19T02:11:10.470Z,32.10
2018-10-19T02:14:04.603Z,32.57
2018-10-19T02:16:58.537Z,33.47
2018-10-19T02:19:55.293Z,33.10
2018-10-19T02:22:48.602Z,33.67
2018-10-19T02:25:42.422Z,33.57
2018-10-19T02:28:38.498Z,32.07
2018-10-19T02:31:34.306Z,33.70
2018-10-19T02:34:28.217Z,33.13
2018-10-19T02:37:22.035Z,33.10
2018-10-19T02:40:16.608Z,35.07
2018-10-19T02:43:10.314Z,35.67
2018-10-19T02:46:03.104Z,32.33
2018-10-19T02:48:57.137Z,37.30
2018-10-19T02:51:50.790Z,33.48
2018-10-19T02:54:47.219Z,34.53
2018-10-19T02:57:43.404Z,35.80
2018-10-19T03:00:36.875Z,34.27
2018-10-19T03:03:30.530Z,34.67
2018-10-19T03:06:26.330Z,33.23
2018-10-19T03:09:24.472Z,32.73
2018-10-19T03:12:18.904Z,31.87
2018-10-19T03:15:14.125Z,32.07
2018-10-19T03:18:08.298Z,33.70
2018-10-19T03:21:03.992Z,34.33
2018-10-19T03:23:57.529Z,34.80
2018-10-19T03:26:52.420Z,35.63
2018-10-19T03:29:45.554Z,35.30
2018-10-19T03:32:39.251Z,33.03
2018-10-19T03:35:33.167Z,36.07
2018-10-19T03:38:26.965Z,37.30
2018-10-19T03:41:21.185Z,37.45
2018-10-19T03:44:14.840Z,33.83
2018-10-19T03:47:07.840Z,35.43
2018-10-19T03:50:04.494Z,37.42
2018-10-19T03:52:58.442Z,35.27
2018-10-19T03:55:52.202Z,33.80
2018-10-19T03:58:46.144Z,35.80
2018-10-19T04:01:41.995Z,34.03
2018-10-19T04:04:35.800Z,33.43
2018-10-19T04:07:28.707Z,33.27
2018-10-19T04:10:18.717Z,33.47
2018-10-19T04:13:12.452Z,34.20
2018-10-19T04:16:04.414Z,32.73
2018-10-19T04:18:57.081Z,34.60
2018-10-19T04:21:47.781Z,34.33
2018-10-19T04:24:36.243Z,34.63
2018-10-19T04:27:24.941Z,35.17
2018-10-19T04:30:13.592Z,36.10
2018-10-19T04:33:02.247Z,35.35
2018-10-19T04:35:54.268Z,36.07
2018-10-19T04:38:42.055Z,35.20
2018-10-19T04:41:31.025Z,37.70
2018-10-19T04:44:19.225Z,36.93
2018-10-19T04:47:08.627Z,37.20
2018-10-19T04:49:57.078Z,35.90
2018-10-19T04:52:45.237Z,34.95
2018-10-19T04:55:35.309Z,36.45
2018-10-19T04:58:24.882Z,36.40
2018-10-19T05:01:13.256Z,37.20
2018-10-19T05:04:02.566Z,36.85
2018-10-19T05:06:51.453Z,36.35
2018-10-19T05:09:39.884Z,36.10
2018-10-19T05:12:28.201Z,35.47
2018-10-19T05:15:16.667Z,35.57
2018-10-19T05:18:04.799Z,35.57
2018-10-19T05:20:52.658Z,36.47
2018-10-19T05:23:40.355Z,35.48
2018-10-19T05:26:28.926Z,36.43
2018-10-19T05:29:17.188Z,35.85
2018-10-19T05:32:08.281Z,35.30
2018-10-19T05:35:00.916Z,37.27
2018-10-19T05:37:52.521Z,35.53
2018-10-19T05:40:43.169Z,36.33
2018-10-19T05:43:33.507Z,38.10
2018-10-19T05:46:23.189Z,35.90
2018-10-19T05:49:11.279Z,37.63
2018-10-19T05:51:59.472Z,36.77
2018-10-19T05:54:48.922Z,37.40
2018-10-19T05:57:40.477Z,37.38
2018-10-19T06:00:32.699Z,37.10
2018-10-19T06:03:24.801Z,38.33
2018-10-19T06:06:16.372Z,36.23
2018-10-19T06:09:06.934Z,36.67
2018-10-19T06:11:57.080Z,38.30
2018-10-19T06:14:47.510Z,37.15
2018-10-19T06:17:37.257Z,37.50
2018-10-19T06:20:29.505Z,37.13
2018-10-19T06:23:18.653Z,36.57
2018-10-19T06:26:07.008Z,36.70
2018-10-19T06:28:56.429Z,36.30
2018-10-19T06:31:44.844Z,37.53
2018-10-19T06:34:33.196Z,35.97
2018-10-19T06:37:23.920Z,36.70
2018-10-19T06:40:14.278Z,36.23
2018-10-19T06:43:07.399Z,35.58
2018-10-19T06:45:58.970Z,38.50
2018-10-19T06:48:49.241Z,36.45
2018-10-19T06:51:42.851Z,36.53
2018-10-19T06:54:34.657Z,39.17
2018-10-19T06:57:26.374Z,37.78
2018-10-19T07:00:19.381Z,37.65
2018-10-19T07:03:12.401Z,36.63
2018-10-19T07:06:08.336Z,37.33
2018-10-19T07:08:59.355Z,36.70
2018-10-19T07:11:51.372Z,38.33
2018-10-19T07:14:43.251Z,38.35
2018-10-19T07:17:35.456Z,38.53
2018-10-19T07:20:27.120Z,37.80
2018-10-19T07:23:18.653Z,37.13
2018-10-19T07:26:11.835Z,40.10
2018-10-19T07:29:03.317Z,37.70
2018-10-19T07:31:53.840Z,37.93
2018-10-19T07:34:47.030Z,38.70
2018-10-19T07:37:40.754Z,37.55
2018-10-19T07:40:32.087Z,38.47
2018-10-19T07:43:23.530Z,38.03
2018-10-19T07:49:10.472Z,37.70
2018-10-19T07:52:01.359Z,38.40
2018-10-19T07:54:53.034Z,40.05
2018-10-19T07:57:44.276Z,37.10
2018-10-19T08:00:34.163Z,39.30
2018-10-19T08:03:24.882Z,38.13
2018-10-19T08:06:15.550Z,39.42
2018-10-19T08:09:07.026Z,39.48
2018-10-19T08:11:58.512Z,38.65
2018-10-19T08:14:49.777Z,38.90
2018-10-19T08:17:41.204Z,38.73
2018-10-19T08:20:33.099Z,38.53
2018-10-19T08:23:24.063Z,39.10
2018-10-19T08:26:16.038Z,39.63
2018-10-19T08:29:08.603Z,40.50
2018-10-19T08:31:59.641Z,39.20
2018-10-19T08:34:51.470Z,39.23
2018-10-19T08:37:42.722Z,39.30
2018-10-19T08:40:34.575Z,39.13
2018-10-19T08:43:26.475Z,39.67
2018-10-19T08:46:21.407Z,38.33
2018-10-19T08:49:14.691Z,39.33
2018-10-19T08:52:05.998Z,38.28
2018-10-19T08:54:58.088Z,39.47
2018-10-19T08:57:49.372Z,39.27
2018-10-19T09:00:41.172Z,40.03
2018-10-19T09:03:33.916Z,38.90
2018-10-19T09:06:25.220Z,39.57
2018-10-19T09:13:43.630Z,39.80
2018-10-19T09:16:34.542Z,39.05
2018-10-19T09:19:26.680Z,39.75
2018-10-19T09:22:18.351Z,38.92
2018-10-19T09:25:11.188Z,37.73
2018-10-19T09:28:02.999Z,40.05
2018-10-19T09:30:52.112Z,40.05
2018-10-19T09:33:42.970Z,38.48
2018-10-19T09:36:35.488Z,39.00
2018-10-19T09:39:26.810Z,39.77
2018-10-19T09:42:19.025Z,38.57
2018-10-19T09:45:09.974Z,39.65
2018-10-19T09:48:00.504Z,38.38
2018-10-19T09:50:51.101Z,39.53
2018-10-19T09:53:43.935Z,38.02
2018-10-19T09:56:35.244Z,38.48
2018-10-19T09:59:25.807Z,38.50
2018-10-19T10:02:16.814Z,39.25
2018-10-19T10:05:08.733Z,39.30
2018-10-19T10:08:00.077Z,39.43
2018-10-19T10:10:52.591Z,39.15
2018-10-19T10:13:43.595Z,38.88
2018-10-19T10:16:34.469Z,40.25
2018-10-19T10:19:25.832Z,39.63
2018-10-19T10:22:17.005Z,39.20
2018-10-19T10:25:07.460Z,39.67
2018-10-19T10:27:55.929Z,38.15
2018-10-19T10:30:43.831Z,40.53
2018-10-19T10:33:33.077Z,39.07
2018-10-19T10:36:22.276Z,38.88
2018-10-19T10:39:14.468Z,40.13
2018-10-19T10:42:03.031Z,39.85
2018-10-19T10:44:51.348Z,39.70
2018-10-19T10:47:39.916Z,39.00
2018-10-19T10:50:28.344Z,40.60
2018-10-19T10:53:15.922Z,39.70
2018-10-19T10:56:05.600Z,39.67
2018-10-19T10:58:57.264Z,39.73
2018-10-19T11:01:45.850Z,40.33
2018-10-19T11:04:33.616Z,39.70
2018-10-19T11:07:22.662Z,40.77
2018-10-19T11:10:15.147Z,40.83
2018-10-19T11:13:08.659Z,39.90
2018-10-19T11:16:01.603Z,39.27
2018-10-19T11:18:52.799Z,41.85
2018-10-19T11:21:44.306Z,41.18
2018-10-19T11:24:37.115Z,39.67
2018-10-19T11:27:28.863Z,40.80
2018-10-19T11:30:20.273Z,40.58
2018-10-19T11:33:13.746Z,42.30
2018-10-19T11:36:06.611Z,43.90
2018-10-19T11:38:57.627Z,42.05
2018-10-19T11:41:49.248Z,42.78
2018-10-19T11:44:40.021Z,42.97
2018-10-19T11:47:30.783Z,42.27
2018-10-19T11:50:20.403Z,42.80
2018-10-19T11:53:11.298Z,42.98
2018-10-19T11:56:02.168Z,42.10
2018-10-19T11:58:50.368Z,44.67
2018-10-19T12:01:38.355Z,43.37
2018-10-19T12:04:26.543Z,42.77
2018-10-19T12:07:14.872Z,43.17
2018-10-19T12:10:03.603Z,42.25
2018-10-19T12:12:52.363Z,42.88
2018-10-19T12:15:39.809Z,42.93
2018-10-19T12:18:30.631Z,43.28
2018-10-19T12:21:19.079Z,41.90
2018-10-19T12:24:07.444Z,43.42
2018-10-19T12:26:55.431Z,41.33
2018-10-19T12:29:43.312Z,42.97
2018-10-19T12:32:32.133Z,40.12
2018-10-19T12:35:19.976Z,40.27
2018-10-19T12:38:08.221Z,42.23
2018-10-19T12:40:56.514Z,41.47
2018-10-19T12:43:44.349Z,42.08
2018-10-19T12:46:42.128Z,41.73
2018-10-19T12:49:33.384Z,40.63
2018-10-19T12:52:25.698Z,41.48
2018-10-19T12:55:16.858Z,42.03
2018-10-19T12:58:10.045Z,41.50
2018-10-19T13:01:01.297Z,42.70
2018-10-19T13:03:52.671Z,40.65
2018-10-19T13:06:43.815Z,42.80
2018-10-19T13:09:35.389Z,41.73
2018-10-19T13:12:26.812Z,42.47
2018-10-19T13:15:17.754Z,40.70
2018-10-19T13:18:10.510Z,42.03
2018-10-19T13:21:01.851Z,43.77
2018-10-19T13:23:56.293Z,42.73
2018-10-19T13:26:47.009Z,43.10
2018-10-19T13:29:38.548Z,39.93
2018-10-19T13:32:31.459Z,41.57
2018-10-19T13:35:23.034Z,40.80
2018-10-19T13:38:14.644Z,41.53
2018-10-19T13:41:06.777Z,41.33
2018-10-19T13:43:58.797Z,40.70
2018-10-19T13:46:50.485Z,42.62
2018-10-19T13:49:41.666Z,42.53
2018-10-19T13:52:32.643Z,41.55
2018-10-19T13:55:22.424Z,41.13
2018-10-19T13:58:12.653Z,42.07
2018-10-19T14:01:03.415Z,45.10
2018-10-19T14:03:53.485Z,43.30
2018-10-19T14:06:43.985Z,42.37
2018-10-19T14:09:34.152Z,44.27
2018-10-19T14:12:25.766Z,42.88
2018-10-19T14:15:17.960Z,42.70
2018-10-19T14:18:09.872Z,44.42
2018-10-19T14:21:01.387Z,42.40
2018-10-19T14:23:53.289Z,41.63
2018-10-19T14:26:46.318Z,40.88
2018-10-19T14:29:38.135Z,41.60
2018-10-19T14:32:29.542Z,43.13
2018-10-19T14:35:20.703Z,42.20
2018-10-19T14:38:12.349Z,44.33
2018-10-19T14:41:04.019Z,43.65
2018-10-19T14:43:56.552Z,42.53
2018-10-19T14:46:48.975Z,42.57
2018-10-19T14:49:41.426Z,43.13
2018-10-19T14:52:33.054Z,44.77
2018-10-19T14:55:24.705Z,40.37
2018-10-19T14:58:15.966Z,40.63
2018-10-19T15:01:07.730Z,41.53
2018-10-19T15:03:58.970Z,42.23
2018-10-19T15:06:50.704Z,45.73
2018-10-19T15:09:43.541Z,44.20
2018-10-19T15:12:35.409Z,44.07
2018-10-19T15:15:25.174Z,44.58
2018-10-19T15:18:13.519Z,46.30
2018-10-19T15:21:02.107Z,44.13
2018-10-19T15:23:50.936Z,44.67
2018-10-19T15:26:39.591Z,43.60
2018-10-19T15:29:27.426Z,43.60
2018-10-19T15:32:18.546Z,42.53
2018-10-19T15:35:09.268Z,43.47
2018-10-19T15:38:00.488Z,43.57
2018-10-19T15:40:51.389Z,42.83
2018-10-19T15:43:42.260Z,42.97
2018-10-19T15:46:33.530Z,43.07
2018-10-19T15:49:25.204Z,43.15
2018-10-19T15:52:17.256Z,42.95
2018-10-19T15:55:09.150Z,44.70
2018-10-19T15:58:00.341Z,42.43
2018-10-19T16:00:51.978Z,44.30
2018-10-19T16:03:43.128Z,43.63
2018-10-19T16:06:34.343Z,43.30
2018-10-19T16:09:26.042Z,43.42
2018-10-19T16:12:16.483Z,45.50
2018-10-19T16:15:07.936Z,43.77
2018-10-19T16:17:59.836Z,43.95
2018-10-19T16:20:53.372Z,45.17
2018-10-19T16:23:41.856Z,42.62
2018-10-19T16:26:32.920Z,44.60
2018-10-19T16:29:24.649Z,43.92
2018-10-19T16:32:19.196Z,41.83
2018-10-19T16:35:07.657Z,45.50
2018-10-19T16:37:59.608Z,42.90
2018-10-19T16:40:50.420Z,44.03
2018-10-19T16:43:41.463Z,45.07
2018-10-19T16:46:32.967Z,44.93
2018-10-19T16:49:25.713Z,44.90
2018-10-19T16:52:17.277Z,43.77
2018-10-19T16:55:09.249Z,44.53
2018-10-19T16:58:00.861Z,44.80
2018-10-19T17:00:52.978Z,44.93
2018-10-19T17:03:44.014Z,44.45
2018-10-19T17:06:35.548Z,43.90
2018-10-19T17:09:26.678Z,43.05
2018-10-19T17:12:18.865Z,47.40
2018-10-19T17:15:09.760Z,45.07
2018-10-19T17:18:01.359Z,44.25
2018-10-19T17:20:51.553Z,45.28
2018-10-19T17:23:43.438Z,45.60
2018-10-19T17:26:36.083Z,45.57
2018-10-19T17:29:26.500Z,44.10
2018-10-19T17:32:15.404Z,46.58
2018-10-19T17:35:05.546Z,45.50
2018-10-19T17:37:55.662Z,49.03
2018-10-19T17:40:45.539Z,48.38
2018-10-19T17:43:37.419Z,49.77
2018-10-19T17:46:26.107Z,46.53
2018-10-19T17:49:17.032Z,47.30
2018-10-19T17:52:07.292Z,46.60
2018-10-19T17:54:58.976Z,45.97
2018-10-19T17:57:50.132Z,46.60
2018-10-19T18:00:42.085Z,47.07
2018-10-19T18:03:33.991Z,46.80
2018-10-19T18:06:25.658Z,45.70
2018-10-19T18:09:17.819Z,46.20
2018-10-19T18:12:08.502Z,47.47
2018-10-19T18:15:00.516Z,45.85
2018-10-19T18:17:51.458Z,49.25
2018-10-19T18:20:43.257Z,46.15
2018-10-19T18:23:34.633Z,46.28
2018-10-19T18:26:25.260Z,47.73
2018-10-19T18:29:19.373Z,47.67
2018-10-19T18:32:09.361Z,47.27
2018-10-19T18:35:02.798Z,47.93
2018-10-19T18:37:55.715Z,46.63
2018-10-19T18:40:48.414Z,45.43
2018-10-19T18:43:40.838Z,48.17
2018-10-19T18:46:32.377Z,47.80
2018-10-19T18:49:24.646Z,45.93
2018-10-19T18:52:15.222Z,46.73
2018-10-19T18:55:06.984Z,46.65
2018-10-19T18:57:58.935Z,48.15
2018-10-19T19:00:50.556Z,47.73
2018-10-19T19:03:41.863Z,47.03
2018-10-19T19:06:34.450Z,48.50
2018-10-19T19:09:25.351Z,50.03
2018-10-19T19:12:17.650Z,48.97
2018-10-19T19:15:09.811Z,49.48
2018-10-19T19:18:01.324Z,46.90
2018-10-19T19:20:53.416Z,47.45
2018-10-19T19:23:48.439Z,48.10
2018-10-19T19:26:41.940Z,49.45
2018-10-19T19:29:33.801Z,52.35
2018-10-19T19:32:25.460Z,49.35
2018-10-19T19:35:16.927Z,48.90
2018-10-19T19:38:07.735Z,47.53
2018-10-19T19:41:01.653Z,51.60
2018-10-19T19:43:52.205Z,49.10
2018-10-19T19:46:42.821Z,47.55
2018-10-19T19:49:37.601Z,47.70
2018-10-19T19:52:27.375Z,51.67
2018-10-19T19:55:16.989Z,49.08
2018-10-19T19:58:07.514Z,54.03
2018-10-19T20:00:57.894Z,49.83
2018-10-19T20:03:49.305Z,51.83
2018-10-19T20:06:39.885Z,52.75
2018-10-19T20:09:29.896Z,53.33
2018-10-19T20:12:19.212Z,49.03
2018-10-19T20:15:11.382Z,51.88
2018-10-19T20:18:02.147Z,50.12
2018-10-19T20:20:51.734Z,51.00
2018-10-19T20:23:41.980Z,57.90
2018-10-19T20:26:32.076Z,52.70
2018-10-19T20:29:21.735Z,51.77
2018-10-19T20:32:10.570Z,55.63
2018-10-19T20:34:59.971Z,55.17
2018-10-19T20:37:50.942Z,56.95
2018-10-19T20:40:43.595Z,55.97
2018-10-19T20:43:32.179Z,54.73
2018-10-19T20:46:21.413Z,50.27
2018-10-19T20:49:10.843Z,53.17
2018-10-19T20:52:00.889Z,53.48
2018-10-19T20:54:50.364Z,49.98
2018-10-19T20:57:41.446Z,54.27
2018-10-19T21:00:31.576Z,55.52
2018-10-19T21:03:23.603Z,55.80
2018-10-19T21:06:15.295Z,51.53
2018-10-19T21:09:06.817Z,53.10
2018-10-19T21:11:58.699Z,53.90
2018-10-19T21:14:48.147Z,53.57
2018-10-19T21:17:38.912Z,56.50
2018-10-19T21:20:27.916Z,52.25
2018-10-19T21:23:19.027Z,55.00
2018-10-19T21:26:09.699Z,54.90
2018-10-19T21:29:01.895Z,57.53
2018-10-19T21:31:51.752Z,53.30
2018-10-19T21:34:44.785Z,51.83
2018-10-19T21:37:34.627Z,52.13
2018-10-19T21:40:26.613Z,51.17
2018-10-19T21:43:16.772Z,51.73
2018-10-19T21:46:06.641Z,53.77
2018-10-19T21:48:56.681Z,55.88
2018-10-19T21:51:45.382Z,50.17
2018-10-19T21:54:34.250Z,51.20
2018-10-19T21:57:24.170Z,54.77
2018-10-19T22:00:17.311Z,49.20
2018-10-19T22:03:08.219Z,53.77
2018-10-19T22:05:58.749Z,50.40
2018-10-19T22:08:48.325Z,51.57
2018-10-19T22:11:38.399Z,50.07
2018-10-19T22:14:27.764Z,51.90
2018-10-19T22:17:20.027Z,48.00
2018-10-19T22:20:10.355Z,49.77
2018-10-19T22:23:01.475Z,48.03
2018-10-19T22:25:51.078Z,48.13
2018-10-19T22:28:42.198Z,48.83
2018-10-19T22:31:34.314Z,49.57
2018-10-19T22:34:25.873Z,51.47
2018-10-19T22:37:15.635Z,47.60
2018-10-19T22:40:04.853Z,50.50
2018-10-19T22:42:55.900Z,49.27
2018-10-19T22:45:45.604Z,47.47
2018-10-19T22:48:36.108Z,47.53
2018-10-19T22:51:29.012Z,46.70
2018-10-19T22:54:19.993Z,47.93
2018-10-19T22:57:11.508Z,47.27
2018-10-19T23:00:01.263Z,46.67
2018-10-19T23:02:52.227Z,45.53
2018-10-19T23:05:42.452Z,48.48
2018-10-19T23:08:34.157Z,46.50
2018-10-19T23:11:24.107Z,47.40
2018-10-19T23:14:12.969Z,47.70
2018-10-19T23:17:03.780Z,47.57
2018-10-19T23:19:54.803Z,46.35
2018-10-19T23:22:45.852Z,46.07
2018-10-19T23:25:36.932Z,47.17
2018-10-19T23:28:25.115Z,46.70
2018-10-19T23:31:15.584Z,48.57
2018-10-19T23:34:04.908Z,49.15
2018-10-19T23:36:55.439Z,47.50
2018-10-19T23:39:46.309Z,47.47
2018-10-19T23:42:35.327Z,48.57
2018-10-19T23:45:23.888Z,47.07
2018-10-19T23:48:12.653Z,45.52
2018-10-19T23:51:01.351Z,47.87
2018-10-19T23:53:49.950Z,49.50
2018-10-19T23:56:38.054Z,45.38
2018-10-19T23:59:27.020Z,46.67
